sensor_id;sensor_type;location;lat;lon;timestamp;temperature;humidity
30037;DHT22;36325;51.512;-0.382;2022-12-07T00:02:04;3.70;99.90
30037;DHT22;36325;51.512;-0.382;2022-12-07T00:04:31;3.70;99.90
30037;DHT22;36325;51.512;-0.382;2022-12-07T00:06:59;3.70;99.90
30037;DHT22;36325;51.512;-0.382;2022-12-07T00:11:53;3.60;99.90
30037;DHT22;36325;51.512;-0.382;2022-12-07T00:14:20;3.60;99.90
30037;DHT22;36325;51.512;-0.382;2022-12-07T00:16:50;3.60;99.90
30037;DHT22;36325;51.512;-0.382;2022-12-07T00:19:19;3.60;99.90
30037;DHT22;36325;51.512;-0.382;2022-12-07T00:21:47;3.60;99.90
30037;DHT22;36325;51.512;-0.382;2022-12-07T00:26:42;3.60;99.90
30037;DHT22;36325;51.512;-0.382;2022-12-07T00:29:20;3.50;99.90
30037;DHT22;36325;51.512;-0.382;2022-12-07T00:31:49;3.50;99.90
30037;DHT22;36325;51.512;-0.382;2022-12-07T00:34:20;3.50;99.90
30037;DHT22;36325;51.512;-0.382;2022-12-07T00:39:15;3.40;99.90
30037;DHT22;36325;51.512;-0.382;2022-12-07T00:41:43;3.40;99.90
30037;DHT22;36325;51.512;-0.382;2022-12-07T00:44:10;3.40;99.90
30037;DHT22;36325;51.512;-0.382;2022-12-07T00:46:38;3.40;99.90
30037;DHT22;36325;51.512;-0.382;2022-12-07T00:49:06;3.30;99.90
30037;DHT22;36325;51.512;-0.382;2022-12-07T00:51:34;3.30;99.90
30037;DHT22;36325;51.512;-0.382;2022-12-07T00:54:02;3.30;99.90
30037;DHT22;36325;51.512;-0.382;2022-12-07T00:56:30;3.30;99.90
30037;DHT22;36325;51.512;-0.382;2022-12-07T00:59:00;3.30;99.90
30037;DHT22;36325;51.512;-0.382;2022-12-07T01:01:29;3.30;99.90
30037;DHT22;36325;51.512;-0.382;2022-12-07T01:03:57;3.30;99.90
30037;DHT22;36325;51.512;-0.382;2022-12-07T01:11:23;3.30;99.90
30037;DHT22;36325;51.512;-0.382;2022-12-07T01:13:52;3.20;99.90
30037;DHT22;36325;51.512;-0.382;2022-12-07T01:16:20;3.20;99.90
30037;DHT22;36325;51.512;-0.382;2022-12-07T01:18:53;3.20;99.90
30037;DHT22;36325;51.512;-0.382;2022-12-07T01:21:29;3.20;99.90
30037;DHT22;36325;51.512;-0.382;2022-12-07T01:23:57;3.20;99.90
30037;DHT22;36325;51.512;-0.382;2022-12-07T01:26:25;3.20;99.90
30037;DHT22;36325;51.512;-0.382;2022-12-07T01:28:53;3.20;99.90
30037;DHT22;36325;51.512;-0.382;2022-12-07T01:31:23;3.20;99.90
30037;DHT22;36325;51.512;-0.382;2022-12-07T01:33:53;3.20;99.90
30037;DHT22;36325;51.512;-0.382;2022-12-07T01:36:25;3.10;99.90
30037;DHT22;36325;51.512;-0.382;2022-12-07T01:38:58;3.10;99.90
30037;DHT22;36325;51.512;-0.382;2022-12-07T01:41:29;3.10;99.90
30037;DHT22;36325;51.512;-0.382;2022-12-07T01:44:23;3.10;99.90
30037;DHT22;36325;51.512;-0.382;2022-12-07T01:46:52;3.10;99.90
30037;DHT22;36325;51.512;-0.382;2022-12-07T01:49:44;3.10;99.90
30037;DHT22;36325;51.512;-0.382;2022-12-07T01:52:20;3.10;99.90
30037;DHT22;36325;51.512;-0.382;2022-12-07T01:54:51;3.10;99.90
30037;DHT22;36325;51.512;-0.382;2022-12-07T01:57:20;3.10;99.90
30037;DHT22;36325;51.512;-0.382;2022-12-07T01:59:50;3.00;99.90
30037;DHT22;36325;51.512;-0.382;2022-12-07T02:02:28;3.00;99.90
30037;DHT22;36325;51.512;-0.382;2022-12-07T02:05:01;3.10;99.90
30037;DHT22;36325;51.512;-0.382;2022-12-07T02:07:29;3.00;99.90
30037;DHT22;36325;51.512;-0.382;2022-12-07T02:10:11;3.10;99.90
30037;DHT22;36325;51.512;-0.382;2022-12-07T02:12:38;3.10;99.90
30037;DHT22;36325;51.512;-0.382;2022-12-07T02:15:06;3.00;99.90
30037;DHT22;36325;51.512;-0.382;2022-12-07T02:17:58;3.00;99.90
30037;DHT22;36325;51.512;-0.382;2022-12-07T02:20:32;3.00;99.90
30037;DHT22;36325;51.512;-0.382;2022-12-07T02:28:37;3.00;99.90
30037;DHT22;36325;51.512;-0.382;2022-12-07T02:31:18;3.10;99.90
30037;DHT22;36325;51.512;-0.382;2022-12-07T02:33:52;3.20;99.90
30037;DHT22;36325;51.512;-0.382;2022-12-07T02:36:28;3.30;99.90
30037;DHT22;36325;51.512;-0.382;2022-12-07T02:39:15;3.40;99.90
30037;DHT22;36325;51.512;-0.382;2022-12-07T02:41:47;3.40;99.90
30037;DHT22;36325;51.512;-0.382;2022-12-07T02:44:21;3.50;99.90
30037;DHT22;36325;51.512;-0.382;2022-12-07T02:47:03;3.60;99.90
30037;DHT22;36325;51.512;-0.382;2022-12-07T02:49:38;3.70;99.90
30037;DHT22;36325;51.512;-0.382;2022-12-07T02:52:06;3.70;99.90
30037;DHT22;36325;51.512;-0.382;2022-12-07T02:54:40;3.80;99.90
30037;DHT22;36325;51.512;-0.382;2022-12-07T02:57:48;3.90;99.90
30037;DHT22;36325;51.512;-0.382;2022-12-07T03:00:33;4.00;99.90
30037;DHT22;36325;51.512;-0.382;2022-12-07T03:03:12;4.10;99.90
30037;DHT22;36325;51.512;-0.382;2022-12-07T03:08:44;4.20;99.90
30037;DHT22;36325;51.512;-0.382;2022-12-07T03:11:25;4.30;99.90
30037;DHT22;36325;51.512;-0.382;2022-12-07T03:14:09;4.30;99.90
30037;DHT22;36325;51.512;-0.382;2022-12-07T03:17:16;4.40;99.90
30037;DHT22;36325;51.512;-0.382;2022-12-07T03:19:46;4.40;99.90
30037;DHT22;36325;51.512;-0.382;2022-12-07T03:22:17;4.40;99.90
30037;DHT22;36325;51.512;-0.382;2022-12-07T03:24:54;4.40;99.90
30037;DHT22;36325;51.512;-0.382;2022-12-07T03:30:17;4.40;99.90
30037;DHT22;36325;51.512;-0.382;2022-12-07T03:32:50;4.40;99.90
30037;DHT22;36325;51.512;-0.382;2022-12-07T03:35:29;4.40;99.90
30037;DHT22;36325;51.512;-0.382;2022-12-07T03:38:02;4.40;99.90
30037;DHT22;36325;51.512;-0.382;2022-12-07T03:43:14;4.40;99.90
30037;DHT22;36325;51.512;-0.382;2022-12-07T03:45:44;4.40;99.90
30037;DHT22;36325;51.512;-0.382;2022-12-07T03:48:28;4.30;99.90
30037;DHT22;36325;51.512;-0.382;2022-12-07T03:51:12;4.30;99.90
30037;DHT22;36325;51.512;-0.382;2022-12-07T03:53:49;4.30;99.90
30037;DHT22;36325;51.512;-0.382;2022-12-07T03:56:19;4.20;99.90
30037;DHT22;36325;51.512;-0.382;2022-12-07T03:58:47;4.10;99.90
30037;DHT22;36325;51.512;-0.382;2022-12-07T04:01:17;4.00;99.90
30037;DHT22;36325;51.512;-0.382;2022-12-07T04:03:44;3.70;99.90
30037;DHT22;36325;51.512;-0.382;2022-12-07T04:06:13;3.90;99.90
30037;DHT22;36325;51.512;-0.382;2022-12-07T04:08:40;3.90;99.90
30037;DHT22;36325;51.512;-0.382;2022-12-07T04:11:07;3.90;99.90
30037;DHT22;36325;51.512;-0.382;2022-12-07T04:13:34;4.00;99.90
30037;DHT22;36325;51.512;-0.382;2022-12-07T04:16:23;3.90;99.90
30037;DHT22;36325;51.512;-0.382;2022-12-07T04:21:18;3.90;99.90
30037;DHT22;36325;51.512;-0.382;2022-12-07T04:23:45;3.90;99.90
30037;DHT22;36325;51.512;-0.382;2022-12-07T04:26:12;3.80;99.90
30037;DHT22;36325;51.512;-0.382;2022-12-07T04:28:39;3.80;99.90
30037;DHT22;36325;51.512;-0.382;2022-12-07T04:31:06;3.80;99.90
30037;DHT22;36325;51.512;-0.382;2022-12-07T04:33:35;3.90;99.90
30037;DHT22;36325;51.512;-0.382;2022-12-07T04:36:03;3.90;99.90
30037;DHT22;36325;51.512;-0.382;2022-12-07T04:38:31;3.90;99.90
30037;DHT22;36325;51.512;-0.382;2022-12-07T04:43:25;4.00;99.90
30037;DHT22;36325;51.512;-0.382;2022-12-07T04:45:53;4.10;99.90
30037;DHT22;36325;51.512;-0.382;2022-12-07T04:48:20;4.10;99.90
30037;DHT22;36325;51.512;-0.382;2022-12-07T04:50:48;4.20;99.90
30037;DHT22;36325;51.512;-0.382;2022-12-07T04:53:16;4.20;99.90
30037;DHT22;36325;51.512;-0.382;2022-12-07T04:55:44;4.20;99.90
30037;DHT22;36325;51.512;-0.382;2022-12-07T04:58:13;4.20;99.90
30037;DHT22;36325;51.512;-0.382;2022-12-07T05:00:41;4.30;99.90
30037;DHT22;36325;51.512;-0.382;2022-12-07T05:03:08;4.30;99.90
30037;DHT22;36325;51.512;-0.382;2022-12-07T05:05:40;4.40;99.90
30037;DHT22;36325;51.512;-0.382;2022-12-07T05:08:07;4.40;99.90
30037;DHT22;36325;51.512;-0.382;2022-12-07T05:13:02;4.40;99.90
30037;DHT22;36325;51.512;-0.382;2022-12-07T05:15:29;4.40;99.90
30037;DHT22;36325;51.512;-0.382;2022-12-07T05:17:57;4.40;99.90
30037;DHT22;36325;51.512;-0.382;2022-12-07T05:20:24;4.50;99.90
30037;DHT22;36325;51.512;-0.382;2022-12-07T05:22:51;4.40;99.90
30037;DHT22;36325;51.512;-0.382;2022-12-07T05:27:46;4.60;99.90
30037;DHT22;36325;51.512;-0.382;2022-12-07T05:32:42;4.60;99.90
30037;DHT22;36325;51.512;-0.382;2022-12-07T05:35:09;4.60;99.90
30037;DHT22;36325;51.512;-0.382;2022-12-07T05:37:36;4.60;99.90
30037;DHT22;36325;51.512;-0.382;2022-12-07T05:40:06;4.70;99.90
30037;DHT22;36325;51.512;-0.382;2022-12-07T05:42:34;4.70;99.90
30037;DHT22;36325;51.512;-0.382;2022-12-07T05:45:01;4.70;99.90
30037;DHT22;36325;51.512;-0.382;2022-12-07T05:49:56;4.60;99.90
30037;DHT22;36325;51.512;-0.382;2022-12-07T05:52:23;4.60;99.90
30037;DHT22;36325;51.512;-0.382;2022-12-07T05:54:51;4.60;99.90
30037;DHT22;36325;51.512;-0.382;2022-12-07T05:57:18;4.60;99.90
30037;DHT22;36325;51.512;-0.382;2022-12-07T05:59:45;4.60;99.90
30037;DHT22;36325;51.512;-0.382;2022-12-07T06:02:15;4.60;99.90
30037;DHT22;36325;51.512;-0.382;2022-12-07T06:04:45;4.60;99.90
30037;DHT22;36325;51.512;-0.382;2022-12-07T06:07:15;4.60;99.90
30037;DHT22;36325;51.512;-0.382;2022-12-07T06:09:42;4.60;99.90
30037;DHT22;36325;51.512;-0.382;2022-12-07T06:12:11;4.60;99.90
30037;DHT22;36325;51.512;-0.382;2022-12-07T06:14:58;4.60;99.90
30037;DHT22;36325;51.512;-0.382;2022-12-07T06:17:25;4.60;99.90
30037;DHT22;36325;51.512;-0.382;2022-12-07T06:19:53;4.70;99.90
30037;DHT22;36325;51.512;-0.382;2022-12-07T06:22:21;4.70;99.90
30037;DHT22;36325;51.512;-0.382;2022-12-07T06:27:16;4.70;99.90
30037;DHT22;36325;51.512;-0.382;2022-12-07T06:29:44;4.70;99.90
30037;DHT22;36325;51.512;-0.382;2022-12-07T06:32:11;4.70;99.90
30037;DHT22;36325;51.512;-0.382;2022-12-07T06:34:39;4.70;99.90
30037;DHT22;36325;51.512;-0.382;2022-12-07T06:37:06;4.70;99.90
30037;DHT22;36325;51.512;-0.382;2022-12-07T06:39:34;4.70;99.90
30037;DHT22;36325;51.512;-0.382;2022-12-07T06:42:01;4.70;99.90
30037;DHT22;36325;51.512;-0.382;2022-12-07T06:44:28;4.70;99.90
30037;DHT22;36325;51.512;-0.382;2022-12-07T06:46:56;4.70;99.90
30037;DHT22;36325;51.512;-0.382;2022-12-07T06:49:43;4.70;99.90
30037;DHT22;36325;51.512;-0.382;2022-12-07T06:54:38;4.70;99.90
30037;DHT22;36325;51.512;-0.382;2022-12-07T06:57:05;4.70;99.90
30037;DHT22;36325;51.512;-0.382;2022-12-07T06:59:33;4.70;99.90
30037;DHT22;36325;51.512;-0.382;2022-12-07T07:02:00;4.70;99.90
30037;DHT22;36325;51.512;-0.382;2022-12-07T07:04:27;4.70;99.90
30037;DHT22;36325;51.512;-0.382;2022-12-07T07:06:55;4.70;99.90
30037;DHT22;36325;51.512;-0.382;2022-12-07T07:09:25;4.70;99.90
30037;DHT22;36325;51.512;-0.382;2022-12-07T07:11:53;4.60;99.90
30037;DHT22;36325;51.512;-0.382;2022-12-07T07:14:20;4.60;99.90
30037;DHT22;36325;51.512;-0.382;2022-12-07T07:19:16;4.30;99.90
30037;DHT22;36325;51.512;-0.382;2022-12-07T07:21:43;4.20;99.90
30037;DHT22;36325;51.512;-0.382;2022-12-07T07:24:10;4.00;99.90
30037;DHT22;36325;51.512;-0.382;2022-12-07T07:26:38;4.00;99.90
30037;DHT22;36325;51.512;-0.382;2022-12-07T07:29:06;3.80;99.90
30037;DHT22;36325;51.512;-0.382;2022-12-07T07:31:34;3.70;99.90
30037;DHT22;36325;51.512;-0.382;2022-12-07T07:34:02;3.60;99.90
30037;DHT22;36325;51.512;-0.382;2022-12-07T07:36:30;3.40;99.90
30037;DHT22;36325;51.512;-0.382;2022-12-07T07:41:25;3.60;99.90
30037;DHT22;36325;51.512;-0.382;2022-12-07T07:43:52;3.20;99.90
30037;DHT22;36325;51.512;-0.382;2022-12-07T07:48:51;3.00;99.90
30037;DHT22;36325;51.512;-0.382;2022-12-07T07:51:18;3.00;99.90
30037;DHT22;36325;51.512;-0.382;2022-12-07T07:53:45;3.00;99.90
30037;DHT22;36325;51.512;-0.382;2022-12-07T07:56:13;2.90;99.90
30037;DHT22;36325;51.512;-0.382;2022-12-07T07:58:40;2.90;99.90
30037;DHT22;36325;51.512;-0.382;2022-12-07T08:01:08;2.80;99.90
30037;DHT22;36325;51.512;-0.382;2022-12-07T08:03:36;2.80;99.90
30037;DHT22;36325;51.512;-0.382;2022-12-07T08:06:03;2.80;99.90
30037;DHT22;36325;51.512;-0.382;2022-12-07T08:08:31;1.90;99.90
30037;DHT22;36325;51.512;-0.382;2022-12-07T08:10:59;2.80;99.90
30037;DHT22;36325;51.512;-0.382;2022-12-07T08:13:28;2.70;99.90
30037;DHT22;36325;51.512;-0.382;2022-12-07T08:15:58;2.80;99.90
30037;DHT22;36325;51.512;-0.382;2022-12-07T08:18:29;2.70;99.90
30037;DHT22;36325;51.512;-0.382;2022-12-07T08:21:00;2.70;99.90
30037;DHT22;36325;51.512;-0.382;2022-12-07T08:23:31;2.70;99.90
30037;DHT22;36325;51.512;-0.382;2022-12-07T08:26:09;2.80;99.90
30037;DHT22;36325;51.512;-0.382;2022-12-07T08:28:36;2.80;99.90
30037;DHT22;36325;51.512;-0.382;2022-12-07T08:31:10;2.80;99.90
30037;DHT22;36325;51.512;-0.382;2022-12-07T08:33:38;2.80;99.90
30037;DHT22;36325;51.512;-0.382;2022-12-07T08:36:10;2.90;99.90
30037;DHT22;36325;51.512;-0.382;2022-12-07T08:38:39;2.90;99.90
30037;DHT22;36325;51.512;-0.382;2022-12-07T08:41:13;2.90;99.90
30037;DHT22;36325;51.512;-0.382;2022-12-07T08:43:41;2.90;99.90
30037;DHT22;36325;51.512;-0.382;2022-12-07T08:46:25;2.90;99.90
30037;DHT22;36325;51.512;-0.382;2022-12-07T08:49:06;2.90;99.90
30037;DHT22;36325;51.512;-0.382;2022-12-07T08:51:35;2.90;99.90
30037;DHT22;36325;51.512;-0.382;2022-12-07T08:54:06;2.90;99.90
30037;DHT22;36325;51.512;-0.382;2022-12-07T08:59:03;3.00;99.90
30037;DHT22;36325;51.512;-0.382;2022-12-07T09:01:31;3.00;99.90
30037;DHT22;36325;51.512;-0.382;2022-12-07T09:03:59;3.10;99.90
30037;DHT22;36325;51.512;-0.382;2022-12-07T09:06:27;3.20;99.90
30037;DHT22;36325;51.512;-0.382;2022-12-07T09:08:58;3.20;99.90
30037;DHT22;36325;51.512;-0.382;2022-12-07T09:11:27;3.30;99.90
30037;DHT22;36325;51.512;-0.382;2022-12-07T09:13:55;3.40;99.90
30037;DHT22;36325;51.512;-0.382;2022-12-07T09:16:22;3.50;99.90
30037;DHT22;36325;51.512;-0.382;2022-12-07T09:18:50;3.60;99.90
30037;DHT22;36325;51.512;-0.382;2022-12-07T09:21:17;3.80;99.90
30037;DHT22;36325;51.512;-0.382;2022-12-07T09:23:44;4.10;99.90
30037;DHT22;36325;51.512;-0.382;2022-12-07T09:26:12;4.60;99.90
30037;DHT22;36325;51.512;-0.382;2022-12-07T09:31:08;5.60;99.90
30037;DHT22;36325;51.512;-0.382;2022-12-07T09:34:00;6.00;99.90
30037;DHT22;36325;51.512;-0.382;2022-12-07T09:36:28;6.40;99.90
30037;DHT22;36325;51.512;-0.382;2022-12-07T09:38:56;6.60;99.90
30037;DHT22;36325;51.512;-0.382;2022-12-07T09:41:27;7.20;99.90
30037;DHT22;36325;51.512;-0.382;2022-12-07T09:44:02;7.20;99.90
30037;DHT22;36325;51.512;-0.382;2022-12-07T09:46:40;7.30;99.90
30037;DHT22;36325;51.512;-0.382;2022-12-07T09:49:21;7.40;99.90
30037;DHT22;36325;51.512;-0.382;2022-12-07T09:54:35;7.30;99.90
30037;DHT22;36325;51.512;-0.382;2022-12-07T09:57:03;7.80;99.90
30037;DHT22;36325;51.512;-0.382;2022-12-07T09:59:30;8.10;99.90
30037;DHT22;36325;51.512;-0.382;2022-12-07T10:04:52;8.50;99.90
30037;DHT22;36325;51.512;-0.382;2022-12-07T10:07:19;9.10;99.90
30037;DHT22;36325;51.512;-0.382;2022-12-07T10:09:46;9.10;99.90
30037;DHT22;36325;51.512;-0.382;2022-12-07T10:12:14;9.20;99.90
30037;DHT22;36325;51.512;-0.382;2022-12-07T10:14:57;9.60;99.90
30037;DHT22;36325;51.512;-0.382;2022-12-07T10:17:48;9.80;99.90
30037;DHT22;36325;51.512;-0.382;2022-12-07T10:25:36;10.30;99.90
30037;DHT22;36325;51.512;-0.382;2022-12-07T10:30:52;11.00;99.90
30037;DHT22;36325;51.512;-0.382;2022-12-07T10:33:38;11.40;99.90
30037;DHT22;36325;51.512;-0.382;2022-12-07T10:36:23;11.90;99.90
30037;DHT22;36325;51.512;-0.382;2022-12-07T10:39:15;12.20;99.90
30037;DHT22;36325;51.512;-0.382;2022-12-07T10:41:56;11.70;99.90
30037;DHT22;36325;51.512;-0.382;2022-12-07T10:44:30;11.60;99.90
30037;DHT22;36325;51.512;-0.382;2022-12-07T11:10:31;14.40;99.90
30037;DHT22;36325;51.512;-0.382;2022-12-07T11:13:33;14.80;99.90
30037;DHT22;36325;51.512;-0.382;2022-12-07T11:19:26;15.60;99.90
30037;DHT22;36325;51.512;-0.382;2022-12-07T11:22:16;16.20;99.90
30037;DHT22;36325;51.512;-0.382;2022-12-07T11:30:23;17.70;99.90
30037;DHT22;36325;51.512;-0.382;2022-12-07T11:33:59;18.00;99.90
30037;DHT22;36325;51.512;-0.382;2022-12-07T11:38:41;18.00;99.90
30037;DHT22;36325;51.512;-0.382;2022-12-07T11:41:10;18.20;99.90
30037;DHT22;36325;51.512;-0.382;2022-12-07T11:46:20;18.70;99.90
30037;DHT22;36325;51.512;-0.382;2022-12-07T11:49:02;18.50;99.90
30037;DHT22;36325;51.512;-0.382;2022-12-07T11:51:34;18.70;99.90
30037;DHT22;36325;51.512;-0.382;2022-12-07T11:54:21;18.80;99.90
30037;DHT22;36325;51.512;-0.382;2022-12-07T11:56:51;19.20;99.90
30037;DHT22;36325;51.512;-0.382;2022-12-07T11:59:36;19.60;99.90
30037;DHT22;36325;51.512;-0.382;2022-12-07T12:02:24;19.70;99.90
30037;DHT22;36325;51.512;-0.382;2022-12-07T12:05:18;20.00;99.90
30037;DHT22;36325;51.512;-0.382;2022-12-07T12:07:54;20.20;99.90
30037;DHT22;36325;51.512;-0.382;2022-12-07T12:11:15;20.10;99.90
30037;DHT22;36325;51.512;-0.382;2022-12-07T12:20:19;19.60;99.90
30037;DHT22;36325;51.512;-0.382;2022-12-07T12:22:55;20.00;99.90
30037;DHT22;36325;51.512;-0.382;2022-12-07T12:25:47;20.60;99.90
30037;DHT22;36325;51.512;-0.382;2022-12-07T12:28:32;21.20;99.90
30037;DHT22;36325;51.512;-0.382;2022-12-07T12:31:09;21.90;99.90
30037;DHT22;36325;51.512;-0.382;2022-12-07T12:34:01;21.80;99.90
30037;DHT22;36325;51.512;-0.382;2022-12-07T12:46:54;22.50;99.90
30037;DHT22;36325;51.512;-0.382;2022-12-07T12:51:52;22.90;99.90
30037;DHT22;36325;51.512;-0.382;2022-12-07T12:54:34;22.90;99.90
30037;DHT22;36325;51.512;-0.382;2022-12-07T12:57:27;22.50;99.90
30037;DHT22;36325;51.512;-0.382;2022-12-07T13:02:39;21.50;99.90
30037;DHT22;36325;51.512;-0.382;2022-12-07T13:29:17;23.90;97.80
30037;DHT22;36325;51.512;-0.382;2022-12-07T13:31:58;24.40;96.80
30037;DHT22;36325;51.512;-0.382;2022-12-07T13:34:36;24.80;96.80
30037;DHT22;36325;51.512;-0.382;2022-12-07T13:39:47;24.50;95.60
30037;DHT22;36325;51.512;-0.382;2022-12-07T13:42:26;23.50;95.50
30037;DHT22;36325;51.512;-0.382;2022-12-07T13:44:55;23.20;95.70
30037;DHT22;36325;51.512;-0.382;2022-12-07T13:47:41;23.00;95.50
30037;DHT22;36325;51.512;-0.382;2022-12-07T13:50:26;23.20;95.10
30037;DHT22;36325;51.512;-0.382;2022-12-07T13:53:01;22.80;94.90
30037;DHT22;36325;51.512;-0.382;2022-12-07T13:55:29;22.80;95.00
30037;DHT22;36325;51.512;-0.382;2022-12-07T13:57:57;22.70;95.30
30037;DHT22;36325;51.512;-0.382;2022-12-07T14:00:26;21.80;95.40
30037;DHT22;36325;51.512;-0.382;2022-12-07T14:05:33;19.70;96.40
30037;DHT22;36325;51.512;-0.382;2022-12-07T14:13:35;16.90;98.80
30037;DHT22;36325;51.512;-0.382;2022-12-07T14:16:05;15.70;99.90
30037;DHT22;36325;51.512;-0.382;2022-12-07T14:18:38;14.70;99.90
30037;DHT22;36325;51.512;-0.382;2022-12-07T14:21:15;14.00;99.90
30037;DHT22;36325;51.512;-0.382;2022-12-07T14:26:39;12.70;99.90
30037;DHT22;36325;51.512;-0.382;2022-12-07T14:31:59;11.80;99.90
30037;DHT22;36325;51.512;-0.382;2022-12-07T14:34:31;11.30;99.90
30037;DHT22;36325;51.512;-0.382;2022-12-07T14:36:58;11.30;99.90
30037;DHT22;36325;51.512;-0.382;2022-12-07T14:39:25;11.40;99.90
30037;DHT22;36325;51.512;-0.382;2022-12-07T14:44:23;12.40;99.90
30037;DHT22;36325;51.512;-0.382;2022-12-07T14:46:57;12.20;99.90
30037;DHT22;36325;51.512;-0.382;2022-12-07T14:49:45;12.30;99.90
30037;DHT22;36325;51.512;-0.382;2022-12-07T14:52:19;12.90;99.90
30037;DHT22;36325;51.512;-0.382;2022-12-07T14:55:27;13.10;99.90
30037;DHT22;36325;51.512;-0.382;2022-12-07T14:57:57;12.60;99.90
30037;DHT22;36325;51.512;-0.382;2022-12-07T15:00:28;11.40;99.90
30037;DHT22;36325;51.512;-0.382;2022-12-07T15:02:56;11.40;99.90
30037;DHT22;36325;51.512;-0.382;2022-12-07T15:05:23;10.60;99.90
30037;DHT22;36325;51.512;-0.382;2022-12-07T15:07:51;10.50;99.90
30037;DHT22;36325;51.512;-0.382;2022-12-07T15:10:22;10.20;99.90
30037;DHT22;36325;51.512;-0.382;2022-12-07T15:12:50;9.90;99.90
30037;DHT22;36325;51.512;-0.382;2022-12-07T15:15:18;9.60;99.90
30037;DHT22;36325;51.512;-0.382;2022-12-07T15:17:46;9.40;99.90
30037;DHT22;36325;51.512;-0.382;2022-12-07T15:20:15;9.10;99.90
30037;DHT22;36325;51.512;-0.382;2022-12-07T15:22:43;8.80;99.90
30037;DHT22;36325;51.512;-0.382;2022-12-07T15:25:14;8.50;99.90
30037;DHT22;36325;51.512;-0.382;2022-12-07T15:27:42;8.20;99.90
30037;DHT22;36325;51.512;-0.382;2022-12-07T15:30:09;8.00;99.90
30037;DHT22;36325;51.512;-0.382;2022-12-07T15:35:04;7.50;99.90
30037;DHT22;36325;51.512;-0.382;2022-12-07T15:37:32;7.20;99.90
30037;DHT22;36325;51.512;-0.382;2022-12-07T15:39:59;7.20;99.90
30037;DHT22;36325;51.512;-0.382;2022-12-07T15:42:33;7.00;99.90
30037;DHT22;36325;51.512;-0.382;2022-12-07T15:45:00;6.90;99.90
30037;DHT22;36325;51.512;-0.382;2022-12-07T15:47:39;6.80;99.90
30037;DHT22;36325;51.512;-0.382;2022-12-07T15:50:27;6.70;99.90
30037;DHT22;36325;51.512;-0.382;2022-12-07T15:52:55;6.60;99.90
30037;DHT22;36325;51.512;-0.382;2022-12-07T15:55:22;6.50;99.90
30037;DHT22;36325;51.512;-0.382;2022-12-07T15:57:49;6.20;99.90
30037;DHT22;36325;51.512;-0.382;2022-12-07T16:00:17;6.10;99.90
30037;DHT22;36325;51.512;-0.382;2022-12-07T16:02:46;6.10;99.90
30037;DHT22;36325;51.512;-0.382;2022-12-07T16:05:14;6.00;99.90
30037;DHT22;36325;51.512;-0.382;2022-12-07T16:07:41;5.90;99.90
30037;DHT22;36325;51.512;-0.382;2022-12-07T16:10:10;5.90;99.90
30037;DHT22;36325;51.512;-0.382;2022-12-07T16:12:37;5.80;99.90
30037;DHT22;36325;51.512;-0.382;2022-12-07T16:15:05;5.70;99.90
30037;DHT22;36325;51.512;-0.382;2022-12-07T16:17:33;5.60;99.90
30037;DHT22;36325;51.512;-0.382;2022-12-07T16:20:00;5.50;99.90
30037;DHT22;36325;51.512;-0.382;2022-12-07T16:22:27;5.50;99.90
30037;DHT22;36325;51.512;-0.382;2022-12-07T16:24:54;5.40;99.90
30037;DHT22;36325;51.512;-0.382;2022-12-07T16:27:22;5.30;99.90
30037;DHT22;36325;51.512;-0.382;2022-12-07T16:29:50;5.20;99.90
30037;DHT22;36325;51.512;-0.382;2022-12-07T16:32:18;5.10;99.90
30037;DHT22;36325;51.512;-0.382;2022-12-07T16:34:45;5.00;99.90
30037;DHT22;36325;51.512;-0.382;2022-12-07T16:42:07;4.90;99.90
30037;DHT22;36325;51.512;-0.382;2022-12-07T16:44:34;4.80;99.90
30037;DHT22;36325;51.512;-0.382;2022-12-07T16:47:01;4.80;99.90
30037;DHT22;36325;51.512;-0.382;2022-12-07T16:49:29;4.80;99.90
30037;DHT22;36325;51.512;-0.382;2022-12-07T16:51:56;4.80;99.90
30037;DHT22;36325;51.512;-0.382;2022-12-07T16:54:44;4.70;99.90
30037;DHT22;36325;51.512;-0.382;2022-12-07T16:57:11;4.70;99.90
30037;DHT22;36325;51.512;-0.382;2022-12-07T16:59:44;4.70;99.90
30037;DHT22;36325;51.512;-0.382;2022-12-07T17:02:12;3.70;99.90
30037;DHT22;36325;51.512;-0.382;2022-12-07T17:04:39;4.70;99.90
30037;DHT22;36325;51.512;-0.382;2022-12-07T17:14:34;4.60;99.90
30037;DHT22;36325;51.512;-0.382;2022-12-07T17:17:20;4.50;99.90
30037;DHT22;36325;51.512;-0.382;2022-12-07T17:19:47;4.50;99.90
30037;DHT22;36325;51.512;-0.382;2022-12-07T17:24:44;4.30;99.90
30037;DHT22;36325;51.512;-0.382;2022-12-07T17:27:11;4.30;99.90
30037;DHT22;36325;51.512;-0.382;2022-12-07T17:29:39;4.20;99.90
30037;DHT22;36325;51.512;-0.382;2022-12-07T17:32:06;4.10;99.90
30037;DHT22;36325;51.512;-0.382;2022-12-07T17:34:33;4.00;99.90
30037;DHT22;36325;51.512;-0.382;2022-12-07T17:37:01;3.90;99.90
30037;DHT22;36325;51.512;-0.382;2022-12-07T17:39:28;4.00;99.90
30037;DHT22;36325;51.512;-0.382;2022-12-07T17:41:55;3.90;99.90
30037;DHT22;36325;51.512;-0.382;2022-12-07T17:44:41;3.80;99.90
30037;DHT22;36325;51.512;-0.382;2022-12-07T17:47:08;3.80;99.90
30037;DHT22;36325;51.512;-0.382;2022-12-07T17:49:37;3.80;99.90
30037;DHT22;36325;51.512;-0.382;2022-12-07T17:52:04;3.70;99.90
30037;DHT22;36325;51.512;-0.382;2022-12-07T17:54:50;3.70;99.90
30037;DHT22;36325;51.512;-0.382;2022-12-07T17:57:17;3.60;99.90
30037;DHT22;36325;51.512;-0.382;2022-12-07T17:59:44;3.60;99.90
30037;DHT22;36325;51.512;-0.382;2022-12-07T18:02:11;3.00;99.90
30037;DHT22;36325;51.512;-0.382;2022-12-07T18:04:38;3.60;99.90
30037;DHT22;36325;51.512;-0.382;2022-12-07T18:07:08;3.60;99.90
30037;DHT22;36325;51.512;-0.382;2022-12-07T18:09:36;3.60;99.90
30037;DHT22;36325;51.512;-0.382;2022-12-07T18:14:31;3.50;99.90
30037;DHT22;36325;51.512;-0.382;2022-12-07T18:16:59;3.50;99.90
30037;DHT22;36325;51.512;-0.382;2022-12-07T18:19:26;3.50;99.90
30037;DHT22;36325;51.512;-0.382;2022-12-07T18:21:53;3.50;99.90
30037;DHT22;36325;51.512;-0.382;2022-12-07T18:24:21;3.50;99.90
30037;DHT22;36325;51.512;-0.382;2022-12-07T18:29:17;3.50;99.90
30037;DHT22;36325;51.512;-0.382;2022-12-07T18:31:45;3.50;99.90
30037;DHT22;36325;51.512;-0.382;2022-12-07T18:34:17;3.60;99.90
30037;DHT22;36325;51.512;-0.382;2022-12-07T18:36:47;3.60;99.90
30037;DHT22;36325;51.512;-0.382;2022-12-07T18:39:16;3.60;99.90
30037;DHT22;36325;51.512;-0.382;2022-12-07T18:41:44;3.60;99.90
30037;DHT22;36325;51.512;-0.382;2022-12-07T18:44:11;3.70;99.90
30037;DHT22;36325;51.512;-0.382;2022-12-07T18:46:43;3.60;99.90
30037;DHT22;36325;51.512;-0.382;2022-12-07T18:49:13;3.60;99.90
30037;DHT22;36325;51.512;-0.382;2022-12-07T18:51:41;3.60;99.90
30037;DHT22;36325;51.512;-0.382;2022-12-07T18:54:08;3.60;99.90
30037;DHT22;36325;51.512;-0.382;2022-12-07T18:56:36;3.50;99.90
30037;DHT22;36325;51.512;-0.382;2022-12-07T18:59:04;3.40;99.90
30037;DHT22;36325;51.512;-0.382;2022-12-07T19:01:52;3.40;99.90
30037;DHT22;36325;51.512;-0.382;2022-12-07T19:04:20;3.30;99.90
30037;DHT22;36325;51.512;-0.382;2022-12-07T19:06:48;3.30;99.90
30037;DHT22;36325;51.512;-0.382;2022-12-07T19:09:17;3.10;99.90
30037;DHT22;36325;51.512;-0.382;2022-12-07T19:11:45;3.20;99.90
30037;DHT22;36325;51.512;-0.382;2022-12-07T19:14:24;3.00;99.90